Time;durP1;ratioP1;P1;durP2;ratioP2;P2;SDS_P1;SDS_P2;PMS_P1;PMS_P2;Temp;Humidity;BMP_temperature;BMP_pressure;BME280_temperature;BME280_humidity;BME280_pressure;Samples;Min_cycle;Max_cycle;Signal;HPM_P1;HPM_P2
2022/08/26 00:02:05;;;;;;;;;;;16.70;73.90;;;;;;5078962;28;19977;-43
2022/08/26 00:04:31;;;;;;;;;;;16.60;76.10;;;;;;5078970;28;19936;-43
2022/08/26 00:06:57;;;;;;;;;;;16.60;73.30;;;;;;5078480;28;19909;-43
2022/08/26 00:09:23;;;;;;;;;;;16.60;75.50;;;;;;5078797;28;19951;-43
2022/08/26 00:11:49;;;;;;;;;;;16.60;73.50;;;;;;5078757;28;19955;-44
2022/08/26 00:14:15;;;;;;;;;;;16.50;72.20;;;;;;5078988;28;19909;-45
2022/08/26 00:16:41;;;;;;;;;;;16.50;71.30;;;;;;5078419;28;19916;-44
2022/08/26 00:19:07;;;;;;;;;;;16.40;76.20;;;;;;5078656;28;19909;-43
2022/08/26 00:21:33;;;;;;;;;;;16.40;74.90;;;;;;5078669;28;20359;-44
2022/08/26 00:23:58;;;;;;;;;;;16.40;75.30;;;;;;5078617;28;19915;-42
2022/08/26 00:26:24;;;;;;;;;;;16.40;72.40;;;;;;5078242;28;19909;-43
2022/08/26 00:28:49;;;;;;;;;;;16.30;72.70;;;;;;5078674;28;19909;-44
2022/08/26 00:31:15;;;;;;;;;;;16.30;73.40;;;;;;5078471;28;19931;-45
2022/08/26 00:33:41;;;;;;;;;;;16.20;72.40;;;;;;5078384;28;19908;-43
2022/08/26 00:36:08;;;;;;;;;;;16.20;74.70;;;;;;5078328;28;19947;-42
2022/08/26 00:38:37;;;;;;;;;;;16.20;76.20;;;;;;5077949;28;20351;-43
2022/08/26 00:41:03;;;;;;;;;;;16.20;77.10;;;;;;5078358;28;19958;-43
2022/08/26 00:43:31;;;;;;;;;;;16.10;75.40;;;;;;5078263;28;19931;-43
2022/08/26 00:45:59;;;;;;;;;;;16.10;73.90;;;;;;5078032;28;19971;-44
2022/08/26 00:48:26;;;;;;;;;;;16.10;76.20;;;;;;5077931;28;19915;-44
2022/08/26 00:50:58;;;;;;;;;;;16.10;75.00;;;;;;5078084;28;20439;-42
2022/08/26 00:53:26;;;;;;;;;;;16.00;72.40;;;;;;5077894;28;19912;-46
2022/08/26 00:55:58;;;;;;;;;;;16.00;73.30;;;;;;5078104;28;19954;-44
2022/08/26 00:58:24;;;;;;;;;;;16.00;76.10;;;;;;5076144;28;19948;-43
2022/08/26 01:00:51;;;;;;;;;;;16.00;76.00;;;;;;5078131;28;19956;-44
2022/08/26 01:03:18;;;;;;;;;;;16.00;75.70;;;;;;5077144;28;19908;-44
2022/08/26 01:05:44;;;;;;;;;;;15.90;77.20;;;;;;5077854;28;19987;-43
2022/08/26 01:08:10;;;;;;;;;;;15.90;74.50;;;;;;5077927;28;19932;-43
2022/08/26 01:10:36;;;;;;;;;;;15.90;77.00;;;;;;5077492;28;19948;-43
2022/08/26 01:13:03;;;;;;;;;;;15.80;75.10;;;;;;5077874;28;19908;-44
2022/08/26 01:15:31;;;;;;;;;;;15.80;77.60;;;;;;5077848;28;19909;-46
2022/08/26 01:17:57;;;;;;;;;;;15.80;74.40;;;;;;5077543;28;19959;-43
2022/08/26 01:20:30;;;;;;;;;;;15.80;74.00;;;;;;5077694;28;19908;-42
2022/08/26 01:23:00;;;;;;;;;;;15.80;74.20;;;;;;5077553;28;20380;-45
2022/08/26 01:25:28;;;;;;;;;;;15.80;75.40;;;;;;5076111;28;20041;-45
2022/08/26 01:27:56;;;;;;;;;;;15.80;77.10;;;;;;5077750;28;20330;-46
2022/08/26 01:30:23;;;;;;;;;;;15.80;75.30;;;;;;5077723;28;19994;-43
2022/08/26 01:32:49;;;;;;;;;;;15.80;73.60;;;;;;5077647;28;19908;-43
2022/08/26 01:35:14;;;;;;;;;;;15.70;73.50;;;;;;5077685;28;19908;-44
2022/08/26 01:37:40;;;;;;;;;;;15.70;74.30;;;;;;5077405;28;19912;-44
2022/08/26 01:40:07;;;;;;;;;;;15.70;76.90;;;;;;5078025;28;20375;-43
2022/08/26 01:42:33;;;;;;;;;;;15.70;73.50;;;;;;5077361;28;19947;-43
2022/08/26 01:45:10;;;;;;;;;;;15.70;75.50;;;;;;5077402;28;20412;-42
2022/08/26 01:47:36;;;;;;;;;;;15.60;76.40;;;;;;5077508;28;19944;-44
2022/08/26 01:50:04;;;;;;;;;;;15.60;76.30;;;;;;5077164;28;19913;-43
2022/08/26 01:52:33;;;;;;;;;;;15.60;73.30;;;;;;5077513;28;19915;-44
2022/08/26 01:54:59;;;;;;;;;;;15.60;76.90;;;;;;5077653;28;20249;-46
2022/08/26 01:57:25;;;;;;;;;;;15.60;76.20;;;;;;5077034;28;19966;-43
2022/08/26 01:59:51;;;;;;;;;;;15.50;76.60;;;;;;5077459;28;19914;-43
2022/08/26 02:02:17;;;;;;;;;;;15.50;77.30;;;;;;5077042;28;20330;-43
2022/08/26 02:04:47;;;;;;;;;;;15.50;75.20;;;;;;5077410;28;19955;-47
2022/08/26 02:07:14;;;;;;;;;;;15.50;79.10;;;;;;5077431;28;19912;-42
2022/08/26 02:09:40;;;;;;;;;;;15.50;77.50;;;;;;5077150;28;19912;-44
2022/08/26 02:12:07;;;;;;;;;;;15.50;76.70;;;;;;5064756;28;19913;-45
2022/08/26 02:14:34;;;;;;;;;;;15.50;77.40;;;;;;5059317;28;19972;-45
2022/08/26 02:17:02;;;;;;;;;;;15.40;75.50;;;;;;5060714;28;19913;-43
2022/08/26 02:19:32;;;;;;;;;;;15.40;76.40;;;;;;5060820;28;19915;-45
2022/08/26 02:22:02;;;;;;;;;;;15.40;77.30;;;;;;5060933;28;19924;-44
2022/08/26 02:24:29;;;;;;;;;;;15.30;75.70;;;;;;5060675;28;19955;-44
2022/08/26 02:26:56;;;;;;;;;;;15.40;78.70;;;;;;5060796;28;19913;-43
2022/08/26 02:29:27;;;;;;;;;;;15.30;78.40;;;;;;5060804;28;19913;-43
2022/08/26 02:31:54;;;;;;;;;;;15.30;74.90;;;;;;5060750;28;19909;-43
2022/08/26 02:34:22;;;;;;;;;;;15.30;78.00;;;;;;5060416;28;19909;-45
2022/08/26 02:36:48;;;;;;;;;;;15.20;79.80;;;;;;5060392;28;19915;-42
2022/08/26 02:39:15;;;;;;;;;;;15.20;80.30;;;;;;5060580;28;19909;-43
2022/08/26 02:41:41;;;;;;;;;;;15.20;76.80;;;;;;5060286;28;19909;-43
2022/08/26 02:44:07;;;;;;;;;;;15.20;80.00;;;;;;5060143;28;19909;-43
2022/08/26 02:46:33;;;;;;;;;;;15.10;77.30;;;;;;5060630;28;19916;-44
2022/08/26 02:49:00;;;;;;;;;;;15.10;79.20;;;;;;5060000;28;19908;-43
2022/08/26 02:51:25;;;;;;;;;;;15.10;79.10;;;;;;5060123;28;19962;-46
2022/08/26 02:53:51;;;;;;;;;;;15.10;77.80;;;;;;5060338;28;20003;-44
2022/08/26 02:56:17;;;;;;;;;;;15.00;75.50;;;;;;5060116;28;19909;-44
2022/08/26 02:58:42;;;;;;;;;;;15.00;76.30;;;;;;5059928;28;19935;-43
2022/08/26 03:01:17;;;;;;;;;;;15.00;76.10;;;;;;5060027;28;20003;-43
2022/08/26 03:03:43;;;;;;;;;;;15.00;74.50;;;;;;5060164;28;19916;-43
2022/08/26 03:06:08;;;;;;;;;;;15.00;78.20;;;;;;5059867;28;19909;-43
2022/08/26 03:08:34;;;;;;;;;;;15.00;78.50;;;;;;5060160;28;20318;-43
2022/08/26 03:10:59;;;;;;;;;;;15.00;80.40;;;;;;5059696;28;19916;-42
2022/08/26 03:13:25;;;;;;;;;;;15.00;80.00;;;;;;5060044;28;19909;-45
2022/08/26 03:15:51;;;;;;;;;;;14.90;78.80;;;;;;5059922;28;20350;-43
2022/08/26 03:18:16;;;;;;;;;;;14.90;76.80;;;;;;5059800;28;19959;-45
2022/08/26 03:20:42;;;;;;;;;;;14.90;76.40;;;;;;5059549;28;19920;-43
2022/08/26 03:23:08;;;;;;;;;;;14.90;79.40;;;;;;5059858;28;19909;-43
2022/08/26 03:25:33;;;;;;;;;;;14.90;79.80;;;;;;5058891;28;19916;-44
2022/08/26 03:27:59;;;;;;;;;;;14.90;76.50;;;;;;5059922;28;19909;-45
2022/08/26 03:30:40;;;;;;;;;;;14.90;78.40;;;;;;5059437;28;19931;-43
2022/08/26 03:33:07;;;;;;;;;;;14.90;75.40;;;;;;5059459;28;19968;-44
2022/08/26 03:35:33;;;;;;;;;;;14.80;80.20;;;;;;5059307;28;20262;-43
2022/08/26 03:37:58;;;;;;;;;;;14.80;78.90;;;;;;5059750;28;19920;-42
2022/08/26 03:40:24;;;;;;;;;;;14.80;78.60;;;;;;5059707;28;20306;-45
2022/08/26 03:42:50;;;;;;;;;;;14.80;77.20;;;;;;5059371;28;19909;-42
2022/08/26 03:45:16;;;;;;;;;;;14.80;78.50;;;;;;5059363;28;19909;-43
2022/08/26 03:47:42;;;;;;;;;;;14.80;76.40;;;;;;5059072;28;19995;-44
2022/08/26 03:50:08;;;;;;;;;;;14.70;76.30;;;;;;5058857;28;19959;-45
2022/08/26 03:52:34;;;;;;;;;;;14.70;78.40;;;;;;5059152;28;20392;-42
2022/08/26 03:55:00;;;;;;;;;;;14.70;77.20;;;;;;5058749;28;19931;-42
2022/08/26 03:57:25;;;;;;;;;;;14.60;78.60;;;;;;5058651;28;19921;-44
2022/08/26 03:59:51;;;;;;;;;;;14.60;76.80;;;;;;5059278;28;19909;-45
2022/08/26 04:02:17;;;;;;;;;;;14.60;75.40;;;;;;5058821;28;19967;-45
2022/08/26 04:04:42;;;;;;;;;;;14.50;79.80;;;;;;5059115;28;20372;-43
2022/08/26 04:07:08;;;;;;;;;;;14.60;78.20;;;;;;5059059;28;19909;-46
2022/08/26 04:09:34;;;;;;;;;;;14.50;78.80;;;;;;5059104;28;20324;-43
2022/08/26 04:11:59;;;;;;;;;;;14.50;76.50;;;;;;5058605;28;19932;-45
2022/08/26 04:14:26;;;;;;;;;;;14.50;79.30;;;;;;5058748;28;19963;-42
2022/08/26 04:16:52;;;;;;;;;;;14.50;80.00;;;;;;5058234;28;20392;-45
2022/08/26 04:19:18;;;;;;;;;;;14.40;77.90;;;;;;5058454;28;20399;-45
2022/08/26 04:21:44;;;;;;;;;;;14.40;79.40;;;;;;5058605;28;19913;-43
2022/08/26 04:24:10;;;;;;;;;;;14.40;79.60;;;;;;5058299;28;19980;-44
2022/08/26 04:26:36;;;;;;;;;;;14.40;79.80;;;;;;5058656;28;19959;-44
2022/08/26 04:29:06;;;;;;;;;;;14.40;79.80;;;;;;5058529;28;19908;-43
2022/08/26 04:31:33;;;;;;;;;;;14.40;78.80;;;;;;5058796;28;19983;-45
2022/08/26 04:33:59;;;;;;;;;;;14.30;76.70;;;;;;5058405;28;19909;-42
2022/08/26 04:36:24;;;;;;;;;;;14.30;79.40;;;;;;5058347;28;19916;-43
2022/08/26 04:38:50;;;;;;;;;;;14.30;79.80;;;;;;5057787;28;19919;-42
2022/08/26 04:41:16;;;;;;;;;;;14.40;79.10;;;;;;5058497;28;19959;-46
2022/08/26 04:43:42;;;;;;;;;;;14.40;80.90;;;;;;5058130;28;20015;-42
2022/08/26 04:46:08;;;;;;;;;;;14.30;76.90;;;;;;5058624;28;19960;-43
2022/08/26 04:48:34;;;;;;;;;;;14.30;78.70;;;;;;5058057;28;20284;-44
2022/08/26 04:51:00;;;;;;;;;;;14.30;79.40;;;;;;5058172;28;19916;-43
2022/08/26 04:53:27;;;;;;;;;;;14.20;79.00;;;;;;5058051;28;20387;-45
2022/08/26 04:55:53;;;;;;;;;;;14.20;81.00;;;;;;5057639;28;19959;-44
2022/08/26 04:58:19;;;;;;;;;;;14.20;79.30;;;;;;5057959;28;19920;-43
2022/08/26 05:00:46;;;;;;;;;;;14.10;81.40;;;;;;5057887;28;19909;-43
2022/08/26 05:03:12;;;;;;;;;;;14.10;81.70;;;;;;5058161;28;19948;-44
2022/08/26 05:05:39;;;;;;;;;;;14.10;79.00;;;;;;5058041;28;19947;-43
2022/08/26 05:08:04;;;;;;;;;;;14.10;82.10;;;;;;5057903;28;19909;-44
2022/08/26 05:10:31;;;;;;;;;;;14.10;81.70;;;;;;5058260;28;20415;-43
2022/08/26 05:12:59;;;;;;;;;;;14.10;81.20;;;;;;5057744;28;19948;-43
2022/08/26 05:15:24;;;;;;;;;;;14.00;79.50;;;;;;5057994;28;19995;-45
2022/08/26 05:17:50;;;;;;;;;;;14.00;79.60;;;;;;5058064;28;19944;-42
2022/08/26 05:20:16;;;;;;;;;;;14.00;80.20;;;;;;5057901;28;19973;-45
2022/08/26 05:22:41;;;;;;;;;;;14.00;81.70;;;;;;5056369;28;19909;-42
2022/08/26 05:25:07;;;;;;;;;;;14.00;81.90;;;;;;5057924;28;19908;-42
2022/08/26 05:27:33;;;;;;;;;;;14.00;81.70;;;;;;5058102;28;20399;-45
2022/08/26 05:29:58;;;;;;;;;;;14.00;80.40;;;;;;5057611;28;20391;-42
2022/08/26 05:32:24;;;;;;;;;;;14.00;80.00;;;;;;5057475;28;19909;-42
2022/08/26 05:34:55;;;;;;;;;;;14.00;79.70;;;;;;5057639;28;20008;-43
2022/08/26 05:37:21;;;;;;;;;;;14.00;80.90;;;;;;5057671;28;19919;-42
2022/08/26 05:39:47;;;;;;;;;;;14.00;81.50;;;;;;5057260;28;19984;-42
2022/08/26 05:42:12;;;;;;;;;;;14.10;81.40;;;;;;5057473;28;19960;-42
2022/08/26 05:44:38;;;;;;;;;;;14.00;82.00;;;;;;5057566;28;19909;-42
2022/08/26 05:47:04;;;;;;;;;;;14.10;82.60;;;;;;5057590;28;19916;-42
2022/08/26 05:49:29;;;;;;;;;;;14.00;82.60;;;;;;5059395;28;20291;-42
2022/08/26 05:51:55;;;;;;;;;;;14.00;80.80;;;;;;5061266;28;20376;-44
2022/08/26 05:54:21;;;;;;;;;;;14.00;83.30;;;;;;5061770;28;19909;-45
2022/08/26 05:56:46;;;;;;;;;;;14.10;82.80;;;;;;5061059;28;19920;-42
2022/08/26 05:59:13;;;;;;;;;;;14.10;83.00;;;;;;5061401;28;19974;-43
2022/08/26 06:01:38;;;;;;;;;;;14.10;82.80;;;;;;5061237;28;19944;-43
2022/08/26 06:04:04;;;;;;;;;;;14.10;83.00;;;;;;5061560;28;20321;-44
2022/08/26 06:06:31;;;;;;;;;;;14.10;83.30;;;;;;5061408;28;19915;-43
2022/08/26 06:08:58;;;;;;;;;;;14.10;82.10;;;;;;5061103;28;19909;-43
2022/08/26 06:11:24;;;;;;;;;;;14.10;84.00;;;;;;5061285;28;19909;-43
2022/08/26 06:13:54;;;;;;;;;;;14.10;83.90;;;;;;5064141;28;19913;-43
2022/08/26 06:16:22;;;;;;;;;;;14.10;84.30;;;;;;5079438;28;19916;-43
2022/08/26 06:18:48;;;;;;;;;;;14.20;84.70;;;;;;5075452;28;19952;-46
2022/08/26 06:21:19;;;;;;;;;;;14.20;84.30;;;;;;5060917;28;20395;-43
2022/08/26 06:26:30;;;;;;;;;;;14.20;81.80;;;;;;5060231;28;20004;-43
2022/08/26 06:28:57;;;;;;;;;;;14.20;81.90;;;;;;5064203;28;20510;-45
2022/08/26 06:31:24;;;;;;;;;;;14.30;84.90;;;;;;5080448;28;19940;-42
2022/08/26 06:33:50;;;;;;;;;;;14.40;84.80;;;;;;5073091;28;19909;-44
2022/08/26 06:36:18;;;;;;;;;;;14.40;84.70;;;;;;5060779;28;19909;-45
2022/08/26 06:38:44;;;;;;;;;;;14.40;85.90;;;;;;5068051;28;19958;-45
2022/08/26 06:41:10;;;;;;;;;;;14.50;85.90;;;;;;5078505;28;19995;-42
2022/08/26 06:43:37;;;;;;;;;;;14.50;85.40;;;;;;5079999;28;19944;-45
2022/08/26 06:46:04;;;;;;;;;;;14.50;85.10;;;;;;5068749;28;19919;-44
2022/08/26 06:48:30;;;;;;;;;;;14.60;85.40;;;;;;5060752;28;20312;-43
2022/08/26 06:51:13;;;;;;;;;;;14.70;85.50;;;;;;5060328;28;19966;-42
2022/08/26 06:53:40;;;;;;;;;;;14.70;84.40;;;;;;5060822;28;19920;-44
2022/08/26 06:56:07;;;;;;;;;;;14.70;84.00;;;;;;5062259;28;19966;-42
2022/08/26 06:58:33;;;;;;;;;;;14.70;85.50;;;;;;5059732;28;19943;-45
2022/08/26 07:01:00;;;;;;;;;;;14.80;83.50;;;;;;5069892;28;20007;-43
2022/08/26 07:03:26;;;;;;;;;;;14.90;85.80;;;;;;5080328;28;19948;-43
2022/08/26 07:05:52;;;;;;;;;;;14.90;84.30;;;;;;5077225;28;19920;-43
2022/08/26 07:08:17;;;;;;;;;;;15.00;86.00;;;;;;5080071;28;19916;-44
2022/08/26 07:10:43;;;;;;;;;;;15.10;86.60;;;;;;5078214;28;19920;-44
2022/08/26 07:13:09;;;;;;;;;;;15.20;85.80;;;;;;5068345;28;20380;-42
2022/08/26 07:15:38;;;;;;;;;;;15.20;83.30;;;;;;5059688;28;19908;-44
2022/08/26 07:18:04;;;;;;;;;;;15.20;85.30;;;;;;5062882;28;20386;-43
2022/08/26 07:20:30;;;;;;;;;;;15.40;85.70;;;;;;5080110;28;19908;-45
2022/08/26 07:22:57;;;;;;;;;;;15.50;84.10;;;;;;5076060;28;19999;-45
2022/08/26 07:25:23;;;;;;;;;;;15.60;85.30;;;;;;5059575;28;19912;-44
2022/08/26 07:27:49;;;;;;;;;;;15.70;85.30;;;;;;5076408;28;19919;-45
2022/08/26 07:30:14;;;;;;;;;;;15.80;84.10;;;;;;5079701;28;19912;-43
2022/08/26 07:32:40;;;;;;;;;;;15.80;84.90;;;;;;5064715;28;19913;-45
2022/08/26 07:35:06;;;;;;;;;;;15.90;84.80;;;;;;5066956;28;19966;-43
2022/08/26 07:37:32;;;;;;;;;;;16.00;85.80;;;;;;5079102;28;19948;-44
2022/08/26 07:39:57;;;;;;;;;;;16.10;84.60;;;;;;5071921;28;19913;-45
2022/08/26 07:42:23;;;;;;;;;;;16.10;83.90;;;;;;5063256;28;19982;-44
2022/08/26 07:44:49;;;;;;;;;;;16.30;84.70;;;;;;5079238;28;19908;-43
2022/08/26 07:47:15;;;;;;;;;;;16.40;83.60;;;;;;5077408;28;19913;-51
2022/08/26 07:49:40;;;;;;;;;;;16.40;84.00;;;;;;5079475;28;19908;-46
2022/08/26 07:52:06;;;;;;;;;;;16.50;83.40;;;;;;5077340;28;19909;-48
2022/08/26 07:54:32;;;;;;;;;;;16.50;83.70;;;;;;5067044;28;20288;-43
2022/08/26 07:56:58;;;;;;;;;;;16.60;83.20;;;;;;5077571;28;19916;-46
2022/08/26 07:59:23;;;;;;;;;;;16.60;82.60;;;;;;5072772;28;19912;-44
2022/08/26 08:01:49;;;;;;;;;;;16.70;83.30;;;;;;5058922;28;19944;-43
2022/08/26 08:04:17;;;;;;;;;;;16.70;83.00;;;;;;5060709;28;20398;-43
2022/08/26 08:06:43;;;;;;;;;;;16.80;82.40;;;;;;5058834;28;19909;-46
2022/08/26 08:09:09;;;;;;;;;;;16.90;81.90;;;;;;5060648;28;20322;-44
2022/08/26 08:11:34;;;;;;;;;;;17.00;82.00;;;;;;5058605;28;19909;-43
2022/08/26 08:14:00;;;;;;;;;;;17.10;81.90;;;;;;5069246;28;19912;-44
2022/08/26 08:16:29;;;;;;;;;;;17.10;81.50;;;;;;5078859;28;19931;-42
2022/08/26 08:18:55;;;;;;;;;;;17.20;81.20;;;;;;5076733;28;19916;-43
2022/08/26 08:21:22;;;;;;;;;;;17.30;80.50;;;;;;5078731;28;19939;-43
2022/08/26 08:23:47;;;;;;;;;;;17.40;80.50;;;;;;5067278;28;19913;-45
2022/08/26 08:26:13;;;;;;;;;;;17.50;80.60;;;;;;5058536;28;19920;-45
2022/08/26 08:28:39;;;;;;;;;;;17.60;80.70;;;;;;5068588;28;19912;-43
2022/08/26 08:31:05;;;;;;;;;;;17.60;80.60;;;;;;5067561;28;20396;-45
2022/08/26 08:33:32;;;;;;;;;;;17.70;80.60;;;;;;5060238;28;19913;-46
2022/08/26 08:35:58;;;;;;;;;;;17.80;80.10;;;;;;5058488;28;19913;-42
2022/08/26 08:38:24;;;;;;;;;;;18.00;80.80;;;;;;5063129;28;19916;-46
2022/08/26 08:40:49;;;;;;;;;;;18.10;80.50;;;;;;5058502;28;19909;-43
2022/08/26 08:43:27;;;;;;;;;;;18.20;78.50;;;;;;5066639;28;19912;-43
2022/08/26 08:45:55;;;;;;;;;;;18.30;76.20;;;;;;5078137;28;19912;-45
2022/08/26 08:48:24;;;;;;;;;;;18.40;78.50;;;;;;5072027;28;20049;-46
2022/08/26 08:51:13;;;;;;;;;;;18.60;77.40;;;;;;5078216;28;19908;-42
2022/08/26 08:53:41;;;;;;;;;;;18.80;77.40;;;;;;5065701;28;19912;-44
2022/08/26 08:56:11;;;;;;;;;;;18.90;73.20;;;;;;5078166;28;19912;-44
2022/08/26 08:58:39;;;;;;;;;;;19.00;73.50;;;;;;5072855;28;20011;-44
2022/08/26 09:01:07;;;;;;;;;;;19.00;75.20;;;;;;5061221;28;19912;-43
2022/08/26 09:03:51;;;;;;;;;;;19.10;74.10;;;;;;5062790;28;19999;-46
2022/08/26 09:06:17;;;;;;;;;;;19.10;72.10;;;;;;5065838;28;19913;-44
2022/08/26 09:08:44;;;;;;;;;;;19.30;69.70;;;;;;5062049;28;20307;-43
2022/08/26 09:11:10;;;;;;;;;;;19.40;69.60;;;;;;5062134;28;19908;-49
2022/08/26 09:13:37;;;;;;;;;;;19.40;71.00;;;;;;5057584;28;20286;-45
2022/08/26 09:16:02;;;;;;;;;;;19.60;73.50;;;;;;5060179;28;19908;-47
2022/08/26 09:18:46;;;;;;;;;;;19.80;73.40;;;;;;5059767;28;19913;-53
2022/08/26 09:21:14;;;;;;;;;;;20.00;67.80;;;;;;5057904;28;19940;-48
2022/08/26 09:23:40;;;;;;;;;;;20.20;71.80;;;;;;5064479;28;19916;-51
2022/08/26 09:26:15;;;;;;;;;;;20.20;68.50;;;;;;5067197;28;19957;-49
2022/08/26 09:28:44;;;;;;;;;;;20.50;67.90;;;;;;5065505;28;19921;-50
2022/08/26 09:31:22;;;;;;;;;;;20.80;73.90;;;;;;5058377;28;19913;-52
2022/08/26 09:33:48;;;;;;;;;;;21.20;68.50;;;;;;5069173;28;19965;-52
2022/08/26 09:36:22;;;;;;;;;;;21.80;71.90;;;;;;5057515;28;19913;-50
2022/08/26 09:38:51;;;;;;;;;;;22.30;70.00;;;;;;5058580;28;20376;-48
2022/08/26 09:41:30;;;;;;;;;;;22.70;65.50;;;;;;5073417;28;19912;-53
2022/08/26 09:44:10;;;;;;;;;;;22.70;67.00;;;;;;5062330;28;19912;-50
2022/08/26 09:46:36;;;;;;;;;;;23.00;69.10;;;;;;5073100;28;19970;-52
2022/08/26 09:49:20;;;;;;;;;;;23.30;66.30;;;;;;5072541;28;19909;-53
2022/08/26 09:51:46;;;;;;;;;;;23.80;67.00;;;;;;5069107;28;19920;-51
2022/08/26 09:54:22;;;;;;;;;;;23.90;62.40;;;;;;5057603;28;19912;-53
2022/08/26 09:56:48;;;;;;;;;;;24.10;61.40;;;;;;5061097;28;20423;-53
2022/08/26 09:59:27;;;;;;;;;;;24.40;59.30;;;;;;5073715;28;19912;-52
2022/08/26 10:01:53;;;;;;;;;;;24.90;59.60;;;;;;5077235;28;19957;-51
2022/08/26 10:04:20;;;;;;;;;;;26.40;65.80;;;;;;5072886;28;19995;-49
2022/08/26 10:06:57;;;;;;;;;;;27.20;67.80;;;;;;5061861;28;20277;-51
2022/08/26 10:09:23;;;;;;;;;;;27.60;54.70;;;;;;5057580;28;20357;-52
2022/08/26 10:11:50;;;;;;;;;;;27.50;54.40;;;;;;5057277;28;19920;-50
2022/08/26 10:14:21;;;;;;;;;;;27.00;49.20;;;;;;5060852;28;19912;-50
2022/08/26 10:17:01;;;;;;;;;;;26.90;53.80;;;;;;5076994;28;19915;-48
2022/08/26 10:19:32;;;;;;;;;;;27.60;53.60;;;;;;5077218;28;19917;-51
2022/08/26 10:22:12;;;;;;;;;;;27.60;51.10;;;;;;5060202;28;19920;-50
2022/08/26 10:24:43;;;;;;;;;;;28.50;48.20;;;;;;5071342;28;19912;-53
2022/08/26 10:27:21;;;;;;;;;;;28.80;45.60;;;;;;5068799;28;19913;-51
2022/08/26 10:29:48;;;;;;;;;;;28.60;45.30;;;;;;5070492;28;19908;-53
2022/08/26 10:32:23;;;;;;;;;;;28.20;44.90;;;;;;5075371;28;19909;-53
2022/08/26 10:34:48;;;;;;;;;;;27.60;45.60;;;;;;5071000;28;20352;-48
2022/08/26 10:37:19;;;;;;;;;;;27.90;52.40;;;;;;5078921;28;20281;-51
2022/08/26 10:40:17;;;;;;;;;;;28.60;47.60;;;;;;5064239;28;19912;-49
2022/08/26 10:42:51;;;;;;;;;;;29.30;49.60;;;;;;5038561;28;20115;-48
2022/08/26 10:45:18;;;;;;;;;;;29.00;41.70;;;;;;5060436;28;19912;-49
2022/08/26 10:47:56;;;;;;;;;;;28.50;40.80;;;;;;5060326;28;19912;-50
2022/08/26 10:50:24;;;;;;;;;;;29.00;50.90;;;;;;5060324;28;19909;-52
2022/08/26 10:53:08;;;;;;;;;;;28.80;43.20;;;;;;5068936;28;19912;-48
2022/08/26 10:55:44;;;;;;;;;;;29.20;44.80;;;;;;5069481;28;20011;-50
2022/08/26 10:58:27;;;;;;;;;;;30.40;46.30;;;;;;5069626;28;19969;-53
2022/08/26 11:03:50;;;;;;;;;;;32.20;44.10;;;;;;5079315;28;19969;-54
2022/08/26 11:06:18;;;;;;;;;;;32.70;40.70;;;;;;5076964;28;19915;-53
2022/08/26 11:08:48;;;;;;;;;;;32.90;52.30;;;;;;5079157;28;19915;-50
2022/08/26 11:11:34;;;;;;;;;;;32.60;40.10;;;;;;5079323;28;19908;-49
2022/08/26 11:14:04;;;;;;;;;;;33.00;40.70;;;;;;5061192;28;19909;-53
2022/08/26 11:16:31;;;;;;;;;;;33.50;39.00;;;;;;5080092;28;19909;-50
2022/08/26 11:18:56;;;;;;;;;;;33.30;37.60;;;;;;5078630;28;19919;-54
2022/08/26 11:21:42;;;;;;;;;;;32.70;38.80;;;;;;5078422;28;19909;-53
2022/08/26 11:24:08;;;;;;;;;;;33.10;42.70;;;;;;5079658;28;20420;-50
2022/08/26 11:26:35;;;;;;;;;;;33.70;39.80;;;;;;5079991;28;19947;-48
2022/08/26 11:29:00;;;;;;;;;;;33.70;38.20;;;;;;5079575;28;20292;-53
2022/08/26 11:31:26;;;;;;;;;;;33.50;40.10;;;;;;5079684;28;19908;-50
2022/08/26 11:33:56;;;;;;;;;;;32.90;41.10;;;;;;5079422;28;20000;-51
2022/08/26 11:36:41;;;;;;;;;;;30.80;36.70;;;;;;5079527;28;19916;-53
2022/08/26 11:39:24;;;;;;;;;;;29.50;40.40;;;;;;5079539;28;19955;-48
2022/08/26 11:41:51;;;;;;;;;;;30.50;40.80;;;;;;5079222;28;20410;-51
2022/08/26 11:44:21;;;;;;;;;;;30.70;40.70;;;;;;5079319;28;19913;-51
2022/08/26 11:46:51;;;;;;;;;;;30.20;43.90;;;;;;5078655;28;19983;-53
2022/08/26 11:49:17;;;;;;;;;;;30.80;40.00;;;;;;5079050;28;20351;-49
2022/08/26 11:51:43;;;;;;;;;;;29.60;41.50;;;;;;5079125;28;20002;-48
2022/08/26 11:54:13;;;;;;;;;;;29.40;42.70;;;;;;5079289;28;19909;-50
2022/08/26 11:56:39;;;;;;;;;;;29.50;41.70;;;;;;5078805;28;19929;-50
2022/08/26 11:59:09;;;;;;;;;;;29.00;42.10;;;;;;5079018;28;19913;-47
2022/08/26 12:01:43;;;;;;;;;;;28.60;41.60;;;;;;5077478;28;19962;-50
2022/08/26 12:04:12;;;;;;;;;;;28.10;43.40;;;;;;5078989;28;20418;-51
2022/08/26 12:06:49;;;;;;;;;;;28.20;41.60;;;;;;5079049;28;19915;-51
2022/08/26 12:09:22;;;;;;;;;;;27.70;42.20;;;;;;5078611;28;19940;-52
2022/08/26 12:11:48;;;;;;;;;;;28.10;42.70;;;;;;5078768;28;19915;-49
2022/08/26 12:14:16;;;;;;;;;;;28.90;43.70;;;;;;5079067;28;20003;-54
2022/08/26 12:16:42;;;;;;;;;;;28.50;42.20;;;;;;5078672;28;19958;-50
2022/08/26 12:19:25;;;;;;;;;;;28.40;43.50;;;;;;5078673;28;19913;-50
2022/08/26 12:21:55;;;;;;;;;;;28.60;44.30;;;;;;5078545;28;19909;-52
2022/08/26 12:24:21;;;;;;;;;;;29.40;42.20;;;;;;5078674;28;19908;-53
2022/08/26 12:26:47;;;;;;;;;;;28.20;43.00;;;;;;5078036;28;20368;-51
2022/08/26 12:29:26;;;;;;;;;;;28.70;42.80;;;;;;5078247;28;19912;-47
2022/08/26 12:32:05;;;;;;;;;;;28.70;41.50;;;;;;5078446;28;19955;-50
2022/08/26 12:34:31;;;;;;;;;;;28.10;43.30;;;;;;5078564;28;19944;-51
2022/08/26 12:36:58;;;;;;;;;;;27.90;43.20;;;;;;5078320;28;19991;-54
2022/08/26 12:39:26;;;;;;;;;;;27.30;44.20;;;;;;5078184;28;19909;-49
2022/08/26 12:41:53;;;;;;;;;;;26.80;45.00;;;;;;5077824;28;20339;-53
2022/08/26 12:44:31;;;;;;;;;;;26.60;46.10;;;;;;5078102;28;19909;-48
2022/08/26 12:47:01;;;;;;;;;;;26.40;46.60;;;;;;5078262;28;19909;-49
2022/08/26 12:49:26;;;;;;;;;;;26.00;47.10;;;;;;5078293;28;19908;-49
2022/08/26 12:51:52;;;;;;;;;;;25.30;48.70;;;;;;5078032;28;19919;-51
2022/08/26 12:54:57;;;;;;;;;;;24.50;51.80;;;;;;5078298;28;20465;-50
2022/08/26 12:57:08;;;;;;;;;;;24.40;53.40;;;;;;5077572;28;20442;-51
2022/08/26 12:59:33;;;;;;;;;;;24.30;54.20;;;;;;5077348;28;19913;-49
2022/08/26 13:01:59;;;;;;;;;;;24.30;54.20;;;;;;5078367;28;19909;-48
2022/08/26 13:04:41;;;;;;;;;;;24.60;52.50;;;;;;5077850;28;19958;-49
2022/08/26 13:07:13;;;;;;;;;;;25.20;52.60;;;;;;5077995;28;19958;-47
2022/08/26 13:09:38;;;;;;;;;;;25.70;51.50;;;;;;5077904;28;19909;-51
2022/08/26 13:12:04;;;;;;;;;;;26.40;49.40;;;;;;5076565;28;20360;-49
2022/08/26 13:14:30;;;;;;;;;;;27.00;48.80;;;;;;5077801;28;19908;-51
2022/08/26 13:16:55;;;;;;;;;;;27.30;47.30;;;;;;5077608;28;19916;-49
2022/08/26 13:19:22;;;;;;;;;;;27.70;47.70;;;;;;5077956;28;19909;-47
2022/08/26 13:21:49;;;;;;;;;;;27.80;47.50;;;;;;5077629;28;20383;-46
2022/08/26 13:24:16;;;;;;;;;;;28.00;45.90;;;;;;5077929;28;19916;-47
2022/08/26 13:26:44;;;;;;;;;;;28.10;46.40;;;;;;5077656;28;19915;-49
2022/08/26 13:29:11;;;;;;;;;;;27.80;46.20;;;;;;5077645;28;19909;-47
2022/08/26 13:31:38;;;;;;;;;;;26.80;48.20;;;;;;5076396;28;19908;-51
2022/08/26 13:34:04;;;;;;;;;;;26.90;48.40;;;;;;5077597;28;19919;-46
2022/08/26 13:36:29;;;;;;;;;;;26.50;49.40;;;;;;5077526;28;19908;-49
2022/08/26 13:38:55;;;;;;;;;;;27.20;48.80;;;;;;5077765;28;19913;-47
2022/08/26 13:41:20;;;;;;;;;;;26.90;48.80;;;;;;5077716;28;19908;-48
2022/08/26 13:43:46;;;;;;;;;;;27.20;49.00;;;;;;5077826;28;19914;-46
2022/08/26 13:46:13;;;;;;;;;;;27.20;49.10;;;;;;5077618;28;19912;-48
2022/08/26 13:48:39;;;;;;;;;;;27.20;48.10;;;;;;5077692;28;19915;-48
2022/08/26 13:51:04;;;;;;;;;;;26.40;49.50;;;;;;5077612;28;19909;-48
2022/08/26 13:53:30;;;;;;;;;;;26.50;50.30;;;;;;5077609;28;19947;-50
2022/08/26 13:55:57;;;;;;;;;;;27.10;49.00;;;;;;5076977;28;19908;-50
2022/08/26 13:58:23;;;;;;;;;;;27.30;48.10;;;;;;5076798;28;20016;-48
2022/08/26 14:00:49;;;;;;;;;;;27.50;47.70;;;;;;5077237;28;19908;-49
2022/08/26 14:03:14;;;;;;;;;;;27.80;47.90;;;;;;5077624;28;19915;-53
2022/08/26 14:05:40;;;;;;;;;;;27.60;47.80;;;;;;5077203;28;19908;-49
2022/08/26 14:08:06;;;;;;;;;;;27.20;48.10;;;;;;5077654;28;19936;-53
2022/08/26 14:10:32;;;;;;;;;;;26.80;49.20;;;;;;5078885;28;19912;-52
2022/08/26 14:12:58;;;;;;;;;;;26.00;50.50;;;;;;5081152;28;19908;-50
2022/08/26 14:15:23;;;;;;;;;;;25.50;52.60;;;;;;5079516;28;20414;-50
2022/08/26 14:17:49;;;;;;;;;;;25.60;51.90;;;;;;5080864;28;20352;-52
2022/08/26 14:20:26;;;;;;;;;;;25.40;52.90;;;;;;5081174;28;19909;-48
2022/08/26 14:22:52;;;;;;;;;;;24.90;54.50;;;;;;5080739;28;19908;-52
2022/08/26 14:25:18;;;;;;;;;;;25.20;53.40;;;;;;5079176;28;19916;-49
2022/08/26 14:27:43;;;;;;;;;;;25.10;53.90;;;;;;5080610;28;20269;-47